This is the latest recevied weather packets stored in our database for station/object W4OCD. If no packets are shown the sender has not sent any weather packets the latest 10 day(s).
| Time | Temp. | Humidity | Pressure | Rain* | Wind** | Luminosity | Snow |
|---|---|---|---|---|---|---|---|
| 1777423131 | 17.78° C | 99% | 1018.5 hPa | 7.11 mm | - | 0 W/m² | - |
| 1777422826 | 17.78° C | 99% | 1018.5 hPa | 6.1 mm | - | 0 W/m² | - |
| 1777422522 | 17.78° C | 99% | 1018 hPa | 3.05 mm | - | 0 W/m² | - |
| 1777421917 | 17.78° C | 99% | 1017.6 hPa | 1.78 mm | - | 0 W/m² | - |
| 1777415536 | 17.78° C | 99% | 1016.9 hPa | 0 mm | - | 44 W/m² | - |
| 1777413104 | 17.22° C | 99% | 1016.8 hPa | 1.78 mm | - | 27 W/m² | - |
| 1777411887 | 17.22° C | 99% | 1017.5 hPa | 1.78 mm | - | 7 W/m² | - |
| 1777411281 | 17.22° C | 99% | 1017.9 hPa | 3.05 mm | - | 3 W/m² | - |
| 1777410974 | 17.22° C | 99% | 1018.3 hPa | 4.83 mm | - | 3 W/m² | - |
| 1777410069 | 17.22° C | 99% | 1018.6 hPa | 1.78 mm | - | 3 W/m² | - |
| 1777408548 | 17.22° C | 99% | 1018.4 hPa | 0 mm | - | 16 W/m² | - |
| 1777408248 | 17.22° C | 99% | 1018.2 hPa | 0 mm | - | 25 W/m² | - |
| 1777407943 | 17.22° C | 99% | 1017.8 hPa | 1.27 mm | - | 36 W/m² | - |
| 1777407641 | 17.22° C | 99% | 1017.9 hPa | 1.27 mm | - | 49 W/m² | - |
| 1777407340 | 17.22° C | 99% | 1018 hPa | 0 mm | - | 46 W/m² | - |
| 1777406731 | 17.22° C | 99% | 1019 hPa | 1.78 mm | - | 13 W/m² | - |
| 1777406426 | 17.22° C | 99% | 1019.8 hPa | 0 mm | - | 11 W/m² | - |
| 1777406126 | 17.22° C | 99% | 1020.1 hPa | 1.27 mm | - | 12 W/m² | - |
| 1777405822 | 17.22° C | 99% | 1019.9 hPa | 1.27 mm | - | 23 W/m² | - |
| 1777404914 | 17.78° C | 99% | 1019.7 hPa | 1.78 mm | - | 21 W/m² | - |
| 1777403698 | 17.78° C | 99% | 1020.4 hPa | 1.78 mm | - | 6 W/m² | - |
| 1777403397 | 17.78° C | 99% | 1020 hPa | 1.27 mm | - | 9 W/m² | - |
| 1777402788 | 17.78° C | 99% | 1020.6 hPa | 1.78 mm | - | 10 W/m² | - |
| 1777401272 | 17.78° C | 98% | 1020.6 hPa | 3.05 mm | - | 18 W/m² | - |
| 1777399755 | 18.89° C | 96% | 1022.1 hPa | 13.72 mm | - | 6 W/m² | - |
* Rain latest hour (hover to see other rain measurements)
** Current wind speed in m/s (hover to see current wind gust speed)